createdAt,value
2017-09-21T00:00:43.253Z,0
2017-09-21T00:01:52.093Z,0
2017-09-21T00:03:00.935Z,0
2017-09-21T00:04:09.774Z,0
2017-09-21T00:05:18.612Z,0
2017-09-21T00:06:27.935Z,0
2017-09-21T00:07:36.774Z,0
2017-09-21T00:08:45.613Z,0
2017-09-21T00:09:54.455Z,0
2017-09-21T00:11:03.303Z,0
2017-09-21T00:12:12.293Z,0
2017-09-21T00:13:21.133Z,0
2017-09-21T00:14:29.976Z,0
2017-09-21T00:15:38.817Z,0
2017-09-21T00:16:47.657Z,0
2017-09-21T00:17:56.548Z,0
2017-09-21T00:19:05.386Z,0
2017-09-21T00:20:14.228Z,0
2017-09-21T00:21:23.070Z,0
2017-09-21T00:22:32.245Z,0
2017-09-21T00:23:41.239Z,0
2017-09-21T00:24:50.082Z,0
2017-09-21T00:25:58.923Z,0
2017-09-21T00:27:08.099Z,0
2017-09-21T00:28:16.937Z,0
2017-09-21T00:29:25.931Z,0
2017-09-21T00:30:34.771Z,0
2017-09-21T00:31:43.611Z,0
2017-09-21T00:32:52.454Z,0
2017-09-21T00:34:01.291Z,0
2017-09-21T00:35:10.429Z,0
2017-09-21T00:36:19.271Z,0
2017-09-21T00:37:28.109Z,0
2017-09-21T00:38:36.951Z,0
2017-09-21T00:39:45.792Z,0
2017-09-21T00:40:54.831Z,0
2017-09-21T00:42:03.671Z,0
2017-09-21T00:43:12.512Z,0
2017-09-21T00:44:21.352Z,0
2017-09-21T00:45:30.536Z,0
2017-09-21T00:46:39.574Z,0
2017-09-21T00:47:48.414Z,0
2017-09-21T00:48:57.263Z,0
2017-09-21T00:50:06.105Z,0
2017-09-21T00:51:14.946Z,0
2017-09-21T00:52:24.037Z,0
2017-09-21T00:53:32.882Z,0
2017-09-21T00:54:41.722Z,0
2017-09-21T00:55:50.563Z,0
2017-09-21T00:56:59.400Z,0
2017-09-21T00:58:08.490Z,0
2017-09-21T00:59:17.334Z,0
2017-09-21T01:00:26.177Z,0
2017-09-21T01:01:35.019Z,0
2017-09-21T01:02:43.861Z,0
2017-09-21T01:03:52.903Z,0
2017-09-21T01:05:01.740Z,0
2017-09-21T01:06:10.580Z,0
2017-09-21T01:07:19.422Z,0
2017-09-21T01:08:28.261Z,0
2017-09-21T01:09:37.182Z,0
2017-09-21T01:10:45.995Z,0
2017-09-21T01:11:54.837Z,0
2017-09-21T01:13:03.674Z,0
2017-09-21T01:14:12.514Z,0
2017-09-21T01:15:21.404Z,0
2017-09-21T01:16:30.249Z,0
2017-09-21T01:17:39.094Z,0
2017-09-21T01:18:47.933Z,0
2017-09-21T01:19:56.775Z,0
2017-09-21T01:21:05.742Z,0
2017-09-21T01:22:14.581Z,0
2017-09-21T01:23:23.421Z,0
2017-09-21T01:24:32.264Z,0
2017-09-21T01:25:41.103Z,0
2017-09-21T01:26:50.093Z,0
2017-09-21T01:27:58.935Z,0
2017-09-21T01:29:07.776Z,0
2017-09-21T01:30:16.622Z,0
2017-09-21T01:31:25.791Z,0
2017-09-21T01:32:34.635Z,0
2017-09-21T01:33:43.478Z,0
2017-09-21T01:34:52.319Z,0
2017-09-21T01:36:01.160Z,0
2017-09-21T01:37:10.001Z,0
2017-09-21T01:38:19.142Z,0
2017-09-21T01:39:27.982Z,0
2017-09-21T01:40:36.822Z,0
2017-09-21T01:41:45.666Z,0
2017-09-21T01:42:54.504Z,0
2017-09-21T01:44:03.647Z,0
2017-09-21T01:45:12.493Z,0
2017-09-21T01:46:21.333Z,0
2017-09-21T01:47:30.174Z,0
2017-09-21T01:48:39.013Z,0
2017-09-21T01:49:48.055Z,0
2017-09-21T01:50:56.894Z,0
2017-09-21T01:52:05.734Z,0
2017-09-21T01:53:14.574Z,0
2017-09-21T01:54:23.413Z,0
2017-09-21T01:55:32.349Z,0
2017-09-21T01:56:41.187Z,0
2017-09-21T01:57:50.031Z,0
2017-09-21T01:58:58.873Z,0
2017-09-21T02:00:07.715Z,0
2017-09-21T02:01:16.707Z,0
2017-09-21T02:02:25.548Z,0
2017-09-21T02:03:34.392Z,0
2017-09-21T02:04:43.234Z,0
2017-09-21T02:05:52.080Z,0
2017-09-21T02:07:01.073Z,0
2017-09-21T02:08:09.950Z,0
2017-09-21T02:09:18.755Z,0
2017-09-21T02:10:27.597Z,0
2017-09-21T02:11:36.440Z,0
2017-09-21T02:12:45.283Z,0
2017-09-21T02:13:54.457Z,0
2017-09-21T02:15:03.300Z,0
2017-09-21T02:16:12.141Z,0
2017-09-21T02:17:20.988Z,0
2017-09-21T02:18:30.077Z,0
2017-09-21T02:19:38.921Z,0
2017-09-21T02:20:47.764Z,0
2017-09-21T02:21:56.606Z,0
2017-09-21T02:23:05.450Z,0
2017-09-21T02:24:14.289Z,0
2017-09-21T02:25:23.130Z,0
2017-09-21T02:26:31.973Z,0
2017-09-21T02:27:40.816Z,0
2017-09-21T02:28:49.662Z,0
2017-09-21T02:29:58.889Z,0
2017-09-21T02:31:07.730Z,0
2017-09-21T02:32:16.575Z,0
2017-09-21T02:33:25.417Z,0
2017-09-21T02:34:34.597Z,0
2017-09-21T02:35:43.540Z,0
2017-09-21T02:36:52.381Z,0
2017-09-21T02:38:01.226Z,0
2017-09-21T02:39:10.075Z,0
2017-09-21T02:40:18.919Z,0
2017-09-21T02:41:28.508Z,0
2017-09-21T02:42:37.349Z,0
2017-09-21T02:43:46.197Z,0
2017-09-21T02:44:55.042Z,0
2017-09-21T02:46:03.883Z,0
2017-09-21T02:47:12.779Z,0
2017-09-21T02:48:21.624Z,0
2017-09-21T02:49:30.802Z,0
2017-09-21T02:50:39.976Z,0
2017-09-21T02:51:49.161Z,0
2017-09-21T02:52:58.201Z,0
2017-09-21T02:54:07.045Z,0
2017-09-21T02:55:15.890Z,0
2017-09-21T02:56:24.734Z,0
2017-09-21T02:57:33.914Z,0
2017-09-21T02:58:42.906Z,0
2017-09-21T02:59:51.750Z,0
2017-09-21T03:01:00.593Z,0
2017-09-21T03:02:09.437Z,0
2017-09-21T03:03:18.281Z,0
2017-09-21T03:04:27.273Z,0
2017-09-21T03:05:36.116Z,0
2017-09-21T03:06:44.959Z,0
2017-09-21T03:07:53.802Z,0
2017-09-21T03:09:02.643Z,0
2017-09-21T03:10:11.868Z,0
2017-09-21T03:11:20.709Z,0
2017-09-21T03:12:29.551Z,0
2017-09-21T03:13:38.396Z,0
2017-09-21T03:14:47.568Z,0
2017-09-21T03:15:56.563Z,0
2017-09-21T03:17:05.405Z,0
2017-09-21T03:18:14.249Z,0
2017-09-21T03:19:23.089Z,0
2017-09-21T03:20:31.932Z,0
2017-09-21T03:21:40.824Z,0
2017-09-21T03:22:49.666Z,0
2017-09-21T03:23:58.509Z,0
2017-09-21T03:25:07.357Z,0
2017-09-21T03:26:16.200Z,0
2017-09-21T03:27:25.144Z,0
2017-09-21T03:28:33.987Z,0
2017-09-21T03:29:42.829Z,0
2017-09-21T03:30:51.676Z,0
2017-09-21T03:32:00.520Z,0
2017-09-21T03:33:09.464Z,0
2017-09-21T03:34:18.310Z,0
2017-09-21T03:35:27.152Z,0
2017-09-21T03:36:35.998Z,0
2017-09-21T03:37:44.839Z,0
2017-09-21T03:38:53.832Z,0
2017-09-21T03:40:02.676Z,0
2017-09-21T03:41:11.519Z,0
2017-09-21T03:42:20.363Z,0
2017-09-21T03:43:29.202Z,0
2017-09-21T03:44:38.199Z,0
2017-09-21T03:45:47.038Z,0
2017-09-21T03:46:55.883Z,0
2017-09-21T03:48:04.723Z,0
2017-09-21T03:49:13.569Z,0
2017-09-21T03:50:22.411Z,0
2017-09-21T03:51:31.256Z,0
2017-09-21T03:52:40.098Z,0
2017-09-21T03:53:48.940Z,0
2017-09-21T03:54:58.119Z,0
2017-09-21T03:56:07.265Z,0
2017-09-21T03:57:16.105Z,0
2017-09-21T03:58:25.283Z,0
2017-09-21T03:59:34.461Z,0
2017-09-21T04:00:43.303Z,0
2017-09-21T04:01:52.293Z,0
2017-09-21T04:03:01.137Z,0
2017-09-21T04:04:09.980Z,0
2017-09-21T04:05:18.822Z,0
2017-09-21T04:06:27.664Z,0
2017-09-21T04:07:36.557Z,0
2017-09-21T04:08:45.399Z,0
2017-09-21T04:09:54.239Z,0
2017-09-21T04:11:03.413Z,0
2017-09-21T04:12:12.255Z,0
2017-09-21T04:13:21.247Z,0
2017-09-21T04:14:30.089Z,0
2017-09-21T04:15:38.930Z,0
2017-09-21T04:16:47.768Z,0
2017-09-21T04:17:56.609Z,0
2017-09-21T04:19:05.650Z,0
2017-09-21T04:20:14.487Z,0
2017-09-21T04:21:23.328Z,0
2017-09-21T04:22:32.503Z,0
2017-09-21T04:23:41.345Z,0
2017-09-21T04:24:50.235Z,0
2017-09-21T04:25:59.079Z,0
2017-09-21T04:27:07.921Z,0
2017-09-21T04:28:16.764Z,0
2017-09-21T04:29:25.602Z,0
2017-09-21T04:30:34.544Z,0
2017-09-21T04:31:43.387Z,0
2017-09-21T04:32:52.557Z,0
2017-09-21T04:34:01.400Z,0
2017-09-21T04:35:10.242Z,0
2017-09-21T04:36:19.234Z,0
2017-09-21T04:37:28.087Z,0
2017-09-21T04:38:36.931Z,0
2017-09-21T04:39:45.771Z,0
2017-09-21T04:40:54.609Z,0
2017-09-21T04:42:03.651Z,0
2017-09-21T04:43:12.491Z,0
2017-09-21T04:44:21.334Z,4
2017-09-21T04:45:30.175Z,4
2017-09-21T04:46:39.018Z,0
2017-09-21T04:47:48.395Z,4
2017-09-21T04:48:57.237Z,4
2017-09-21T04:50:06.079Z,4
2017-09-21T04:51:14.921Z,8
2017-09-21T04:52:23.765Z,8
2017-09-21T04:53:32.658Z,8
2017-09-21T04:54:41.499Z,12
2017-09-21T04:55:50.343Z,16
2017-09-21T04:56:59.519Z,12
2017-09-21T04:58:08.358Z,20
2017-09-21T04:59:17.352Z,20
2017-09-21T05:00:26.194Z,28
2017-09-21T05:01:35.040Z,32
2017-09-21T05:02:43.882Z,32
2017-09-21T05:03:52.725Z,40
2017-09-21T05:05:01.869Z,48
2017-09-21T05:06:11.054Z,48
2017-09-21T05:07:19.896Z,56
2017-09-21T05:08:28.740Z,64
2017-09-21T05:09:37.586Z,72
2017-09-21T05:10:46.812Z,80
2017-09-21T05:11:55.656Z,84
2017-09-21T05:13:04.501Z,92
2017-09-21T05:14:13.345Z,100
2017-09-21T05:15:22.188Z,112
2017-09-21T05:16:31.184Z,120
2017-09-21T05:17:40.029Z,132
2017-09-21T05:18:48.870Z,144
2017-09-21T05:19:57.713Z,156
2017-09-21T05:21:06.557Z,168
2017-09-21T05:22:15.649Z,180
2017-09-21T05:23:24.496Z,196
2017-09-21T05:24:33.673Z,208
2017-09-21T05:25:42.515Z,224
2017-09-21T05:26:51.361Z,240
2017-09-21T05:28:00.204Z,256
2017-09-21T05:29:09.048Z,272
2017-09-21T05:30:17.893Z,296
2017-09-21T05:31:26.734Z,316
2017-09-21T05:32:35.577Z,336
2017-09-21T05:33:44.569Z,360
2017-09-21T05:34:53.410Z,388
2017-09-21T05:36:02.252Z,400
2017-09-21T05:37:11.095Z,428
2017-09-21T05:38:19.937Z,460
2017-09-21T05:39:28.832Z,504
2017-09-21T05:40:37.672Z,540
2017-09-21T05:41:46.512Z,576
2017-09-21T05:42:55.709Z,608
2017-09-21T05:44:04.554Z,644
2017-09-21T05:45:13.543Z,680
2017-09-21T05:46:22.718Z,716
2017-09-21T05:47:31.561Z,752
2017-09-21T05:48:40.404Z,788
2017-09-21T05:49:49.247Z,812
2017-09-21T05:50:58.291Z,836
2017-09-21T05:52:07.135Z,860
2017-09-21T05:53:15.979Z,888
2017-09-21T05:54:24.826Z,944
2017-09-21T05:55:33.669Z,1004
2017-09-21T05:56:42.563Z,1052
2017-09-21T05:57:51.408Z,1104
2017-09-21T05:59:00.254Z,1172
2017-09-21T06:00:09.462Z,1216
2017-09-21T06:01:18.279Z,1260
2017-09-21T06:02:27.174Z,1320
2017-09-21T06:03:36.016Z,1396
2017-09-21T06:04:44.858Z,1460
2017-09-21T06:05:53.703Z,1508
2017-09-21T06:07:02.548Z,1536
2017-09-21T06:08:11.441Z,1564
2017-09-21T06:09:20.286Z,1600
2017-09-21T06:10:29.465Z,1636
2017-09-21T06:11:38.309Z,1640
2017-09-21T06:12:47.157Z,1640
2017-09-21T06:13:56.489Z,1648
2017-09-21T06:15:05.336Z,1644
2017-09-21T06:16:14.174Z,1652
2017-09-21T06:17:23.017Z,1676
2017-09-21T06:18:31.860Z,1684
2017-09-21T06:19:40.754Z,1672
2017-09-21T06:20:49.597Z,1644
2017-09-21T06:21:58.441Z,1628
2017-09-21T06:23:07.282Z,1616
2017-09-21T06:24:16.125Z,1608
2017-09-21T06:25:25.068Z,1604
2017-09-21T06:26:33.911Z,1600
2017-09-21T06:27:42.756Z,1608
2017-09-21T06:28:51.601Z,1624
2017-09-21T06:30:00.447Z,1652
2017-09-21T06:31:09.439Z,1696
2017-09-21T06:32:18.620Z,1748
2017-09-21T06:33:27.465Z,1812
2017-09-21T06:34:36.309Z,1860
2017-09-21T06:35:45.487Z,1880
2017-09-21T06:36:54.482Z,1884
2017-09-21T06:38:03.331Z,1892
2017-09-21T06:39:12.507Z,1912
2017-09-21T06:40:21.351Z,1932
2017-09-21T06:41:30.195Z,1956
2017-09-21T06:42:39.197Z,1992
2017-09-21T06:43:48.041Z,2028
2017-09-21T06:44:56.881Z,2048
2017-09-21T06:46:05.738Z,2044
2017-09-21T06:47:14.587Z,2044
2017-09-21T06:48:23.583Z,2060
2017-09-21T06:49:32.788Z,2080
2017-09-21T06:50:41.637Z,2104
2017-09-21T06:51:50.481Z,2096
2017-09-21T06:52:59.657Z,2092
2017-09-21T06:54:08.601Z,2092
2017-09-21T06:55:17.450Z,2084
2017-09-21T06:56:26.299Z,2068
2017-09-21T06:57:35.142Z,2076
2017-09-21T06:58:43.995Z,2108
2017-09-21T06:59:52.891Z,2168
2017-09-21T07:01:01.734Z,2244
2017-09-21T07:02:10.594Z,2292
2017-09-21T07:03:19.427Z,2296
2017-09-21T07:04:28.598Z,2356
2017-09-21T07:05:37.743Z,2388
2017-09-21T07:06:46.586Z,2376
2017-09-21T07:07:55.430Z,2384
2017-09-21T07:09:04.612Z,2404
2017-09-21T07:10:13.458Z,2452
2017-09-21T07:11:22.602Z,2472
2017-09-21T07:12:31.448Z,2480
2017-09-21T07:13:40.295Z,2560
2017-09-21T07:14:49.139Z,2668
2017-09-21T07:15:57.984Z,2692
2017-09-21T07:17:06.981Z,2788
2017-09-21T07:18:15.825Z,2888
2017-09-21T07:19:24.670Z,2916
2017-09-21T07:20:33.513Z,2908
2017-09-21T07:21:42.358Z,2920
2017-09-21T07:22:51.326Z,2948
2017-09-21T07:24:00.173Z,3004
2017-09-21T07:25:09.352Z,3096
2017-09-21T07:26:18.527Z,3172
2017-09-21T07:27:27.372Z,3184
2017-09-21T07:28:36.365Z,3212
2017-09-21T07:29:45.211Z,3112
2017-09-21T07:30:54.056Z,2920
2017-09-21T07:32:02.901Z,2760
2017-09-21T07:33:11.744Z,2600
2017-09-21T07:34:20.638Z,2336
2017-09-21T07:35:29.829Z,2176
2017-09-21T07:36:38.714Z,2088
2017-09-21T07:37:47.558Z,2092
2017-09-21T07:38:56.408Z,2280
2017-09-21T07:40:05.311Z,2388
2017-09-21T07:41:14.162Z,2396
2017-09-21T07:42:23.017Z,2368
2017-09-21T07:43:31.864Z,2292
2017-09-21T07:44:40.707Z,2268
2017-09-21T07:45:49.854Z,2476
2017-09-21T07:46:58.701Z,2760
2017-09-21T07:48:07.545Z,2652
2017-09-21T07:49:16.386Z,2416
2017-09-21T07:50:25.568Z,2252
2017-09-21T07:51:34.904Z,2184
2017-09-21T07:52:43.758Z,2156
2017-09-21T07:53:52.609Z,2108
2017-09-21T07:55:01.451Z,2008
2017-09-21T07:56:10.296Z,1972
2017-09-21T07:57:19.291Z,2048
2017-09-21T07:58:28.466Z,2220
2017-09-21T07:59:37.312Z,2368
2017-09-21T08:00:46.162Z,2464
2017-09-21T08:01:55.008Z,2540
2017-09-21T08:03:04.055Z,2792
2017-09-21T08:04:12.901Z,3028
2017-09-21T08:05:21.746Z,3000
2017-09-21T08:06:30.591Z,2868
2017-09-21T08:07:39.434Z,2908
2017-09-21T08:08:49.012Z,3192
2017-09-21T08:09:57.857Z,3412
2017-09-21T08:11:06.702Z,3384
2017-09-21T08:12:15.886Z,3192
2017-09-21T08:13:25.090Z,3048
2017-09-21T08:14:34.260Z,3004
2017-09-21T08:15:43.104Z,2860
2017-09-21T08:16:51.955Z,2708
2017-09-21T08:18:00.795Z,2580
2017-09-21T08:19:09.639Z,2504
2017-09-21T08:20:18.639Z,2364
2017-09-21T08:21:27.482Z,2204
2017-09-21T08:22:36.331Z,2104
2017-09-21T08:23:45.182Z,2028
2017-09-21T08:24:54.024Z,1980
2017-09-21T08:26:03.018Z,1872
2017-09-21T08:27:11.864Z,1848
2017-09-21T08:28:20.711Z,1844
2017-09-21T08:29:29.557Z,1772
2017-09-21T08:30:39.069Z,1672
2017-09-21T08:31:48.169Z,1572
2017-09-21T08:32:57.008Z,1512
2017-09-21T08:34:05.859Z,1464
2017-09-21T08:35:14.702Z,1448
2017-09-21T08:36:23.549Z,1456
2017-09-21T08:37:32.542Z,1496
2017-09-21T08:38:41.388Z,1536
2017-09-21T08:39:50.233Z,1540
2017-09-21T08:40:59.408Z,1524
2017-09-21T08:42:08.251Z,1536
2017-09-21T08:43:17.348Z,1544
2017-09-21T08:44:26.193Z,1560
2017-09-21T08:45:35.037Z,1572
2017-09-21T08:46:43.882Z,1612
2017-09-21T08:47:52.727Z,1624
2017-09-21T08:49:01.672Z,1616
2017-09-21T08:50:10.517Z,1616
2017-09-21T08:51:19.696Z,1708
2017-09-21T08:52:28.541Z,1692
2017-09-21T08:53:37.386Z,1708
2017-09-21T08:54:46.387Z,1704
2017-09-21T08:55:55.229Z,1712
2017-09-21T08:57:04.075Z,1752
2017-09-21T08:58:12.917Z,1760
2017-09-21T08:59:21.762Z,1772
2017-09-21T09:00:30.757Z,1772
2017-09-21T09:01:39.602Z,1752
2017-09-21T09:02:48.782Z,1752
2017-09-21T09:03:57.626Z,1752
2017-09-21T09:05:06.472Z,1760
2017-09-21T09:06:15.417Z,1768
2017-09-21T09:07:24.262Z,1768
2017-09-21T09:08:33.108Z,1780
2017-09-21T09:09:41.956Z,1776
2017-09-21T09:10:50.800Z,1780
2017-09-21T09:11:59.748Z,1816
2017-09-21T09:13:08.592Z,1836
2017-09-21T09:14:17.438Z,1848
2017-09-21T09:15:26.284Z,1872
2017-09-21T09:16:35.128Z,1884
2017-09-21T09:17:44.025Z,1904
2017-09-21T09:18:52.871Z,1892
2017-09-21T09:20:01.718Z,1884
2017-09-21T09:21:10.564Z,1908
2017-09-21T09:22:19.411Z,1916
2017-09-21T09:23:28.408Z,1940
2017-09-21T09:24:37.259Z,1912
2017-09-21T09:25:46.432Z,1884
2017-09-21T09:26:55.275Z,1924
2017-09-21T09:28:04.121Z,1952
2017-09-21T09:29:13.017Z,1964
2017-09-21T09:30:21.863Z,1980
2017-09-21T09:31:30.713Z,2036
2017-09-21T09:32:39.560Z,2060
2017-09-21T09:33:48.404Z,2088
2017-09-21T09:34:57.301Z,2096
2017-09-21T09:36:06.146Z,2088
2017-09-21T09:37:14.989Z,2120
2017-09-21T09:38:23.837Z,2124
2017-09-21T09:39:32.682Z,2100
2017-09-21T09:40:41.864Z,2100
2017-09-21T09:41:50.677Z,2112
2017-09-21T09:42:59.873Z,2120
2017-09-21T09:44:08.720Z,2208
2017-09-21T09:45:17.566Z,2224
2017-09-21T09:46:26.803Z,2252
2017-09-21T09:47:35.648Z,2276
2017-09-21T09:48:44.493Z,2352
2017-09-21T09:49:53.340Z,2500
2017-09-21T09:51:02.190Z,2320
2017-09-21T09:52:11.285Z,2308
2017-09-21T09:53:20.131Z,2292
2017-09-21T09:54:29.319Z,2396
2017-09-21T09:55:38.164Z,2416
2017-09-21T09:56:47.349Z,2476
2017-09-21T09:57:56.244Z,2548
2017-09-21T09:59:05.090Z,2572
2017-09-21T10:00:13.937Z,2668
2017-09-21T10:01:22.784Z,2840
2017-09-21T10:02:31.629Z,3056
2017-09-21T10:03:40.673Z,3036
2017-09-21T10:04:49.520Z,3084
2017-09-21T10:05:58.369Z,2980
2017-09-21T10:07:07.216Z,2928
2017-09-21T10:08:16.140Z,3044
2017-09-21T10:09:25.407Z,2688
2017-09-21T10:10:34.584Z,2448
2017-09-21T10:11:43.688Z,2444
2017-09-21T10:12:52.664Z,2516
2017-09-21T10:14:01.899Z,2608
2017-09-21T10:15:10.848Z,2552
2017-09-21T10:16:19.791Z,2516
2017-09-21T10:17:28.678Z,2500
2017-09-21T10:18:37.525Z,2528
2017-09-21T10:19:46.433Z,2508
2017-09-21T10:20:55.378Z,2492
2017-09-21T10:22:04.287Z,2472
2017-09-21T10:23:13.191Z,2528
2017-09-21T10:24:22.065Z,2584
2017-09-21T10:25:31.002Z,2592
2017-09-21T10:26:40.080Z,2612
2017-09-21T10:27:49.364Z,2636
2017-09-21T10:28:58.228Z,2628
2017-09-21T10:30:07.103Z,2904
2017-09-21T10:31:16.042Z,2896
2017-09-21T10:32:24.915Z,2844
2017-09-21T10:33:33.847Z,2864
2017-09-21T10:34:42.771Z,2900
2017-09-21T10:35:51.693Z,3336
2017-09-21T10:37:00.585Z,3828
2017-09-21T10:38:09.622Z,4036
2017-09-21T10:39:18.883Z,4172
2017-09-21T10:40:27.760Z,3480
2017-09-21T10:41:36.632Z,3000
2017-09-21T10:42:45.912Z,3000
2017-09-21T10:43:54.911Z,3184
2017-09-21T10:45:03.917Z,3088
2017-09-21T10:46:12.835Z,3300
2017-09-21T10:47:21.753Z,3492
2017-09-21T10:48:30.675Z,3932
2017-09-21T10:50:09.294Z,4828
2017-09-21T10:51:18.202Z,4688
2017-09-21T10:52:27.094Z,4760
2017-09-21T10:53:36.037Z,4524
2017-09-21T10:54:45.364Z,4976
2017-09-21T10:55:54.244Z,5224
2017-09-21T10:57:03.109Z,5336
2017-09-21T10:58:11.995Z,4868
2017-09-21T10:59:20.861Z,4160
2017-09-21T11:00:29.987Z,4004
2017-09-21T11:01:38.844Z,5072
2017-09-21T11:02:47.769Z,6204
2017-09-21T11:03:56.648Z,6240
2017-09-21T11:05:05.552Z,6636
2017-09-21T11:06:14.711Z,6544
2017-09-21T11:07:23.616Z,5664
2017-09-21T11:08:32.550Z,5000
2017-09-21T11:09:41.457Z,5132
2017-09-21T11:10:50.443Z,5108
2017-09-21T11:11:59.451Z,5656
2017-09-21T11:13:08.368Z,6128
2017-09-21T11:14:17.263Z,6576
2017-09-21T11:15:26.208Z,6908
2017-09-21T11:16:35.126Z,7884
2017-09-21T11:17:44.131Z,8884
2017-09-21T11:18:53.056Z,8912
2017-09-21T11:20:01.953Z,8720
2017-09-21T11:21:10.902Z,8372
2017-09-21T11:22:20.090Z,7792
2017-09-21T11:23:29.082Z,7816
2017-09-21T11:24:37.967Z,8040
2017-09-21T11:25:46.906Z,8016
2017-09-21T11:26:55.805Z,7572
2017-09-21T11:28:05.110Z,7036
2017-09-21T11:29:14.080Z,6388
2017-09-21T11:30:22.984Z,6124
2017-09-21T11:31:31.930Z,5756
2017-09-21T11:32:40.815Z,5360
2017-09-21T11:33:49.728Z,5260
2017-09-21T11:34:58.810Z,5152
2017-09-21T11:36:07.700Z,4892
2017-09-21T11:37:16.946Z,4916
2017-09-21T11:38:25.825Z,4948
2017-09-21T11:39:34.776Z,4980
2017-09-21T11:40:43.905Z,4948
2017-09-21T11:41:52.856Z,5120
2017-09-21T11:43:01.969Z,5380
2017-09-21T11:44:10.917Z,6016
2017-09-21T11:45:19.860Z,5796
2017-09-21T11:46:29.051Z,5828
2017-09-21T11:47:38.270Z,6384
2017-09-21T11:48:47.120Z,6052
2017-09-21T11:49:56.010Z,6604
2017-09-21T11:51:04.843Z,8144
2017-09-21T11:52:14.225Z,6896
2017-09-21T11:53:23.073Z,6484
2017-09-21T11:54:31.923Z,20288
2017-09-21T11:55:40.775Z,18304
2017-09-21T11:56:49.631Z,23232
2017-09-21T11:57:58.630Z,23680
2017-09-21T11:59:07.485Z,26592
2017-09-21T12:00:16.334Z,17408
2017-09-21T12:01:25.185Z,16672
2017-09-21T12:02:34.033Z,32416
2017-09-21T12:03:42.982Z,36000
2017-09-21T12:04:51.832Z,20864
2017-09-21T12:06:00.684Z,18912
2017-09-21T12:07:09.540Z,18784
2017-09-21T12:08:18.402Z,11300
2017-09-21T12:09:27.505Z,12228
2017-09-21T12:10:36.358Z,10076
2017-09-21T12:11:45.210Z,9160
2017-09-21T12:12:54.061Z,9660
2017-09-21T12:14:02.914Z,9508
2017-09-21T12:15:11.817Z,13004
2017-09-21T12:16:20.670Z,11968
2017-09-21T12:17:29.525Z,8148
2017-09-21T12:18:38.377Z,9044
2017-09-21T12:19:47.230Z,11704
2017-09-21T12:20:56.384Z,7984
2017-09-21T12:22:05.236Z,7792
2017-09-21T12:23:14.095Z,7812
2017-09-21T12:24:22.953Z,7732
2017-09-21T12:25:31.804Z,8468
2017-09-21T12:26:40.841Z,11952
2017-09-21T12:27:49.986Z,11396
2017-09-21T12:28:58.837Z,11664
2017-09-21T12:30:07.687Z,11480
2017-09-21T12:31:16.537Z,11204
2017-09-21T12:32:25.541Z,12044
2017-09-21T12:33:34.392Z,16000
2017-09-21T12:34:43.244Z,17920
2017-09-21T12:35:52.097Z,8584
2017-09-21T12:37:00.952Z,7488
2017-09-21T12:38:09.802Z,9540
2017-09-21T12:39:18.656Z,11104
2017-09-21T12:40:27.518Z,9412
2017-09-21T12:41:36.390Z,7304
2017-09-21T12:42:45.244Z,8280
2017-09-21T12:43:54.096Z,8500
2017-09-21T12:45:02.951Z,6340
2017-09-21T12:46:11.806Z,5920
2017-09-21T12:47:20.658Z,5672
2017-09-21T12:48:29.848Z,5476
2017-09-21T12:49:38.700Z,5356
2017-09-21T12:50:47.552Z,5280
2017-09-21T12:51:56.403Z,5228
2017-09-21T12:53:05.253Z,5244
2017-09-21T12:54:14.108Z,5248
2017-09-21T12:55:22.961Z,5428
2017-09-21T12:56:31.821Z,5700
2017-09-21T12:57:40.671Z,5788
2017-09-21T12:58:49.524Z,5768
2017-09-21T12:59:58.372Z,5804
2017-09-21T13:01:07.223Z,5884
2017-09-21T13:02:16.074Z,6020
2017-09-21T13:03:25.226Z,6252
2017-09-21T13:04:34.414Z,6544
2017-09-21T13:05:43.604Z,6812
2017-09-21T13:06:52.454Z,7260
2017-09-21T13:08:01.305Z,7596
2017-09-21T13:09:10.157Z,7952
2017-09-21T13:10:19.340Z,8616
2017-09-21T13:11:28.191Z,8716
2017-09-21T13:12:37.043Z,8408
2017-09-21T13:13:45.907Z,8052
2017-09-21T13:14:55.158Z,7912
2017-09-21T13:16:04.010Z,7576
2017-09-21T13:17:12.859Z,7308
2017-09-21T13:18:21.710Z,7204
2017-09-21T13:19:30.561Z,7100
2017-09-21T13:20:39.512Z,7204
2017-09-21T13:21:48.362Z,7572
2017-09-21T13:22:57.212Z,7708
2017-09-21T13:24:06.061Z,7648
2017-09-21T13:25:14.917Z,7700
2017-09-21T13:26:24.164Z,7764
2017-09-21T13:27:33.145Z,7964
2017-09-21T13:28:42.094Z,8256
2017-09-21T13:29:51.057Z,8444
2017-09-21T13:31:00.052Z,8632
2017-09-21T13:32:09.064Z,8712
2017-09-21T13:33:18.009Z,8652
2017-09-21T13:34:26.934Z,8680
2017-09-21T13:35:35.823Z,9028
2017-09-21T13:36:44.742Z,9600
2017-09-21T13:37:54.301Z,9172
2017-09-21T13:39:03.183Z,9636
2017-09-21T13:40:12.077Z,9780
2017-09-21T13:41:21.038Z,8916
2017-09-21T13:42:29.972Z,7872
2017-09-21T13:43:39.094Z,7352
2017-09-21T13:44:48.288Z,7116
2017-09-21T13:45:57.249Z,7008
2017-09-21T13:47:06.180Z,7768
2017-09-21T13:48:15.103Z,7532
2017-09-21T13:49:23.996Z,7860
2017-09-21T13:50:32.968Z,8300
2017-09-21T13:51:41.931Z,8896
2017-09-21T13:52:51.207Z,9564
2017-09-21T13:54:00.503Z,9916
2017-09-21T13:55:10.660Z,10356
2017-09-21T13:56:19.788Z,10276
2017-09-21T13:57:28.764Z,9660
2017-09-21T13:58:37.637Z,8924
2017-09-21T13:59:46.545Z,8312
2017-09-21T14:01:25.212Z,7640
2017-09-21T14:02:34.108Z,7008
2017-09-21T14:03:43.095Z,6208
2017-09-21T14:04:52.386Z,5472
2017-09-21T14:06:01.712Z,5012
2017-09-21T14:07:10.659Z,4856
2017-09-21T14:08:19.577Z,4996
2017-09-21T14:09:28.506Z,5580
2017-09-21T14:10:37.764Z,7340
2017-09-21T14:11:46.740Z,11836
2017-09-21T14:12:55.701Z,12136
2017-09-21T14:14:04.645Z,14080
2017-09-21T14:15:13.953Z,9668
2017-09-21T14:16:22.874Z,9744
2017-09-21T14:17:32.028Z,8996
2017-09-21T14:18:41.004Z,16352
2017-09-21T14:19:49.939Z,16256
2017-09-21T14:20:58.859Z,18240
2017-09-21T14:22:07.837Z,18112
2017-09-21T14:23:17.076Z,18432
2017-09-21T14:24:26.020Z,16416
2017-09-21T14:25:35.080Z,15136
2017-09-21T14:26:43.933Z,11040
2017-09-21T14:27:52.835Z,9720
2017-09-21T14:29:01.878Z,8772
2017-09-21T14:30:10.789Z,7944
2017-09-21T14:31:19.698Z,7888
2017-09-21T14:32:28.598Z,7580
2017-09-21T14:33:37.926Z,7916
2017-09-21T14:34:46.902Z,7296
2017-09-21T14:35:55.863Z,7136
2017-09-21T14:37:06.396Z,7024
2017-09-21T14:38:15.310Z,6936
2017-09-21T14:39:24.256Z,6744
2017-09-21T14:40:33.213Z,6392
2017-09-21T14:41:42.154Z,6052
2017-09-21T14:42:51.012Z,5824
2017-09-21T14:43:59.919Z,5608
2017-09-21T14:45:08.863Z,5460
2017-09-21T14:46:17.889Z,5328
2017-09-21T14:47:26.743Z,5284
2017-09-21T14:48:35.648Z,5276
2017-09-21T14:49:44.931Z,5328
2017-09-21T14:50:53.802Z,5476
2017-09-21T14:52:04.727Z,5628
2017-09-21T14:53:16.678Z,5676
2017-09-21T14:54:29.139Z,5692
2017-09-21T14:55:40.697Z,5752
2017-09-21T14:56:52.089Z,5812
2017-09-21T14:58:01.453Z,5716
2017-09-21T14:59:10.401Z,5536
2017-09-21T15:00:19.302Z,5376
2017-09-21T15:01:28.213Z,5224
2017-09-21T15:02:37.090Z,5036
2017-09-21T15:03:46.462Z,4808
2017-09-21T15:04:55.358Z,4680
2017-09-21T15:06:04.305Z,4732
2017-09-21T15:07:13.242Z,4884
2017-09-21T15:08:22.194Z,5060
2017-09-21T15:09:31.298Z,5240
2017-09-21T15:10:40.174Z,5348
2017-09-21T15:11:49.093Z,5456
2017-09-21T15:12:57.999Z,5484
2017-09-21T15:14:06.904Z,5484
2017-09-21T15:15:15.990Z,5580
2017-09-21T15:16:24.893Z,5684
2017-09-21T15:17:34.004Z,5668
2017-09-21T15:18:42.867Z,5560
2017-09-21T15:19:51.716Z,5520
2017-09-21T15:21:00.570Z,5536
2017-09-21T15:22:09.752Z,5548
2017-09-21T15:23:18.604Z,5564
2017-09-21T15:24:27.453Z,5528
2017-09-21T15:25:36.304Z,5664
2017-09-21T15:26:45.456Z,5660
2017-09-21T15:27:54.307Z,5688
2017-09-21T15:29:03.155Z,6060
2017-09-21T15:30:12.010Z,6816
2017-09-21T15:31:20.860Z,7384
2017-09-21T15:32:30.151Z,7080
2017-09-21T15:33:39.001Z,6664
2017-09-21T15:34:47.853Z,6224
2017-09-21T15:35:57.036Z,7088
2017-09-21T15:37:05.886Z,7392
2017-09-21T15:38:14.888Z,7428
2017-09-21T15:39:23.738Z,8644
2017-09-21T15:40:32.591Z,8908
2017-09-21T15:41:41.516Z,6044
2017-09-21T15:42:50.384Z,5192
2017-09-21T15:43:59.358Z,4932
2017-09-21T15:45:08.234Z,5184
2017-09-21T15:46:17.088Z,5412
2017-09-21T15:47:25.936Z,4828
2017-09-21T15:48:34.787Z,5196
2017-09-21T15:49:43.693Z,4708